A- A+ FrançaisEnglishEspañol中国

Services sur Internet Soldes sur Internet Des idées de cadeaux Météo Météo aéro

La météo à : Autours de vous Tarbes-Lourdes-PyrénéesBasle-Mulhouse Morlaix-Ploujean Bastia Poretta

manche à air

La météo aéronautique pour les pilotes, la préparation du vol avec les METAR (METeorological Aerodrome Report, message d'observation des conditions météorologiques pour l'aviation) et Les TAF (Terminal Aerodrome Forecast : message de prévision à court terme des conditions météorologiques pour l'aviation). Et les autres ressources comme les VAC (Visual Approch Chart) et les NOTAM (Notice To Airman) pour préprer les vols.

Aéroport Rovaniemi (Finlande) / OACI EFRO/ IATA RVN

L'altitude de l'aéroport Rovaniemi est de 196 m = 643 ft. Il est situé à proximité de Rovaniemi (Finlande). La météo générale à 5 jours est disponible pour Ylitornio situé à 59.3 km.

METAR de l'aéroport Rovaniemi - EFRO

EFRO 241850Z AUTO 21007KT 0650 R21/2000D FZFG OVC001 M00/M00 Q1017

Décodage du METAR de l'aéroport Rovaniemi (FI)

METAR émis par EFRO le dimanche 24 novembre 2019 à 18:50 heure TU. C'est un METAR généré automatiquement. Attention ce METAR est obsolète car il a été émis il y a 2 heure et 14 minutes.

La visibilité est de 0.65 km = 0.4 sm.

La température est de 0°C = 32 °F et le point rosée est de 0°C = 32 °F . Ce qui correspond à 100% d'humidité relative.

Le QNH est de 1017 hPa = 30.03 inHg

Vent de 7 kt = 13 km/h, orienté à 210°.

Nuages : Couverture nuageuse soudée à 100 ft = 30 mètres.

FZFG

TAF de l'aéroport Rovaniemi - EFRO

EFRO 311125Z 3112/0112 35007KT 9999 BKN005 TEMPO 3112/3115 3000 -FZDZ BKN004 PROB30 3115/3121 3000 -FZDZ BKN004 BECMG 3121/3123 FEW005

EFRO 311125Z 3112/0112 35007KT 9999 couverture nuageuse fragmentée à 005 temporairement 3112/3115 3000 faible FZDZ couverture nuageuse fragmentée à 004 probabilité de 30% d'avoir 3115/3121 3000 faible FZDZ couverture nuageuse fragmentée à 004 devenant 3121/3123 quelques nuages à 005

Aéroport à proximité de Rovaniemi

Météo générale à 5 jours à Ylitornio (59.3 km)Aéroport Kemijarvi (61 km)Aéroport Ranau (70 km)Aéroport Sodankyla (98 km)Aéroport Kemi (104 km)Aéroport Kittila (133 km)Aéroport Pudasjarvi (139 km)

VAC de l'aéroport Rovaniemi - EFRO

La carte d'approche à vue (VAC Visual Approah Chart) est fournie sans aucune garantie de son actualité. Le pilote est le seul responsable de la vérification de sa validité avant de l'utiliser opérationnellement pour préparer un vol ou l'utiliser lors de sa navigation.

VAC de EFRO

Vue aérienne de l'aéroport Rovaniemi

NOTAM de l'aéroport Rovaniemi

Les NOTAM sont fournis sans aucune garantie de leur actualité. Le pilote est le seul responsable de la vérification de sa validité avant de l'utiliser opérationnellement pour préparer un vol ou l'utiliser lors de sa navigation.

Pas de NOTAM

Sources des données